createdAt,value
2023-01-13T00:01:31.981Z,98885.16
2023-01-13T00:04:01.061Z,98889.44
2023-01-13T00:06:29.761Z,98887.69
2023-01-13T00:08:58.184Z,98888.56
2023-01-13T00:11:27.689Z,98894.56
2023-01-13T00:13:56.131Z,98883.38
2023-01-13T00:16:24.619Z,98899.75
2023-01-13T00:18:54.811Z,98879.03
2023-01-13T00:21:25.147Z,98882.44
2023-01-13T00:23:55.275Z,98888.44
2023-01-13T00:26:25.944Z,98875.53
2023-01-13T00:28:58.807Z,98867.75
2023-01-13T00:31:28.212Z,98876.31
2023-01-13T00:34:00.968Z,98862.50
2023-01-13T00:36:30.764Z,98877.16
2023-01-13T00:39:00.151Z,98865.91
2023-01-13T00:41:49.834Z,98872.78
2023-01-13T00:44:17.422Z,98879.66
2023-01-13T00:46:46.205Z,98867.56
2023-01-13T00:49:16.159Z,98865.03
2023-01-13T00:51:44.855Z,98871.84
2023-01-13T00:54:13.360Z,98878.78
2023-01-13T00:56:41.775Z,98876.22
2023-01-13T00:59:13.549Z,98885.72
2023-01-13T01:01:42.752Z,98899.50
2023-01-13T01:04:12.230Z,98879.63
2023-01-13T01:06:42.231Z,98872.72
2023-01-13T01:09:14.257Z,98879.63
2023-01-13T01:11:43.155Z,98884.72
2023-01-13T01:14:13.942Z,98887.25
2023-01-13T01:16:43.378Z,98887.25
2023-01-13T01:19:11.954Z,98878.63
2023-01-13T01:21:41.926Z,98881.22
2023-01-13T01:24:11.347Z,98889.78
2023-01-13T01:26:41.835Z,98885.44
2023-01-13T01:29:13.683Z,98885.44
2023-01-13T01:31:42.559Z,98891.41
2023-01-13T01:34:11.307Z,98882.75
2023-01-13T01:36:42.841Z,98875.88
2023-01-13T01:39:11.884Z,98863.78
2023-01-13T01:42:00.207Z,98874.09
2023-01-13T01:44:56.935Z,98903.38
2023-01-13T01:47:27.035Z,98899.84
2023-01-13T01:49:57.016Z,98899.84
2023-01-13T01:52:32.797Z,98916.25
2023-01-13T01:55:04.965Z,98917.06
2023-01-13T01:57:40.759Z,98918.78
2023-01-13T02:00:11.094Z,98898.06
2023-01-13T02:02:45.004Z,98905.81
2023-01-13T02:05:14.253Z,98909.25
2023-01-13T02:07:47.516Z,98891.97
2023-01-13T02:10:20.583Z,98891.97
2023-01-13T02:12:49.275Z,98904.06
2023-01-13T02:15:23.915Z,98887.72
2023-01-13T02:18:09.195Z,98887.72
2023-01-13T02:21:11.389Z,98893.72
2023-01-13T02:27:15.449Z,98893.63
2023-01-13T02:30:22.633Z,98903.13
2023-01-13T02:33:06.899Z,98906.53
2023-01-13T02:35:46.285Z,98910.88
2023-01-13T02:38:17.832Z,98908.28
2023-01-13T02:40:55.737Z,98891.88
2023-01-13T02:43:51.394Z,98898.75
2023-01-13T02:46:28.419Z,98904.69
2023-01-13T02:49:02.455Z,98895.31
2023-01-13T02:51:32.599Z,98900.47
2023-01-13T02:54:05.589Z,98903.13
2023-01-13T02:56:40.313Z,98906.53
2023-01-13T02:59:09.197Z,98901.34
2023-01-13T03:01:39.164Z,98902.19
2023-01-13T03:04:14.681Z,98905.66
2023-01-13T03:06:55.928Z,98898.72
2023-01-13T03:09:34.324Z,98896.13
2023-01-13T03:12:14.201Z,98902.13
2023-01-13T03:14:49.649Z,98902.06
2023-01-13T03:17:30.515Z,98903.78
2023-01-13T03:20:08.116Z,98907.22
2023-01-13T03:22:42.913Z,98884.66
2023-01-13T03:25:16.300Z,98891.50
2023-01-13T03:27:54.176Z,98903.50
2023-01-13T03:30:28.844Z,98882.75
2023-01-13T03:33:05.363Z,98885.22
2023-01-13T03:35:40.081Z,98879.97
2023-01-13T03:38:15.174Z,98885.97
2023-01-13T03:40:49.825Z,98880.69
2023-01-13T03:43:43.010Z,98874.59
2023-01-13T03:46:18.080Z,98879.72
2023-01-13T03:48:51.355Z,98878.84
2023-01-13T03:51:24.630Z,98883.94
2023-01-13T03:53:58.450Z,98880.47
2023-01-13T03:56:32.612Z,98882.16
2023-01-13T03:59:06.916Z,98879.59
2023-01-13T04:01:43.638Z,98876.00
2023-01-13T04:04:19.856Z,98880.28
2023-01-13T04:07:01.412Z,98883.69
2023-01-13T04:09:38.818Z,98890.47
2023-01-13T04:12:12.680Z,98888.72
2023-01-13T04:14:42.055Z,98876.59
2023-01-13T04:17:10.872Z,98886.81
2023-01-13T04:19:40.849Z,98895.44
2023-01-13T04:22:09.582Z,98887.50
2023-01-13T04:24:38.297Z,98893.56
2023-01-13T04:27:06.698Z,98884.09
2023-01-13T04:29:35.108Z,98884.03
2023-01-13T04:32:04.012Z,98877.97
2023-01-13T04:34:32.429Z,98884.91
2023-01-13T04:37:02.175Z,98879.75
2023-01-13T04:39:30.585Z,98883.97
2023-01-13T04:41:59.241Z,98880.50
2023-01-13T04:44:27.904Z,98876.13
2023-01-13T04:46:56.340Z,98874.38
2023-01-13T04:49:24.976Z,98872.59
2023-01-13T04:51:53.436Z,98872.59
2023-01-13T04:54:23.479Z,98869.09
2023-01-13T04:56:51.878Z,98872.53
2023-01-13T04:59:20.494Z,98862.13
2023-01-13T05:01:49.773Z,98879.44
2023-01-13T05:04:18.295Z,98866.47
2023-01-13T05:06:46.715Z,98871.59
2023-01-13T05:09:15.897Z,98872.41
2023-01-13T05:12:03.386Z,98877.69
2023-01-13T05:14:54.884Z,98872.41
2023-01-13T05:17:26.619Z,98865.44
2023-01-13T05:19:55.412Z,98880.91
2023-01-13T05:22:41.739Z,98877.50
2023-01-13T05:25:24.550Z,98873.97
2023-01-13T05:27:57.323Z,98866.16
2023-01-13T05:30:28.975Z,98873.09
2023-01-13T05:32:57.502Z,98868.81
2023-01-13T05:35:26.475Z,98871.44
2023-01-13T05:37:56.483Z,98872.31
2023-01-13T05:40:42.477Z,98877.50
2023-01-13T05:43:24.806Z,98883.50
2023-01-13T05:45:58.504Z,98895.56
2023-01-13T05:48:31.871Z,98893.00
2023-01-13T05:51:00.563Z,98892.88
2023-01-13T05:53:29.763Z,98880.78
2023-01-13T05:55:58.787Z,98881.59
2023-01-13T05:58:29.546Z,98881.66
2023-01-13T06:01:01.817Z,98873.03
2023-01-13T06:03:30.473Z,98871.28
2023-01-13T06:06:01.975Z,98878.19
2023-01-13T06:08:31.335Z,98881.66
2023-01-13T06:10:59.881Z,98885.94
2023-01-13T06:13:31.066Z,98891.16
2023-01-13T06:16:01.283Z,98886.81
2023-01-13T06:18:30.083Z,98884.31
2023-01-13T06:20:58.860Z,98892.06
2023-01-13T06:23:27.745Z,98897.22
2023-01-13T06:26:05.481Z,98898.09
2023-01-13T06:28:35.621Z,98896.28
2023-01-13T06:31:08.198Z,98888.53
2023-01-13T06:33:40.604Z,98904.84
2023-01-13T06:36:18.175Z,98902.25
2023-01-13T06:38:50.493Z,98890.16
2023-01-13T06:41:39.894Z,98899.59
2023-01-13T06:44:08.865Z,98896.19
2023-01-13T06:46:37.865Z,98896.19
2023-01-13T06:49:07.141Z,98903.06
2023-01-13T06:51:35.875Z,98915.97
2023-01-13T06:54:05.984Z,98909.94
2023-01-13T06:56:34.401Z,98915.91
2023-01-13T06:59:03.101Z,98921.09
2023-01-13T07:01:33.168Z,98920.16
2023-01-13T07:04:02.823Z,98925.22
2023-01-13T07:06:31.406Z,98921.69
2023-01-13T07:09:01.070Z,98923.38
2023-01-13T07:11:29.710Z,98922.50
2023-01-13T07:14:15.673Z,98919.81
2023-01-13T07:16:45.639Z,98927.47
2023-01-13T07:19:15.782Z,98930.81
2023-01-13T07:21:44.178Z,98937.78
2023-01-13T07:24:12.754Z,98936.09
2023-01-13T07:26:41.336Z,98947.28
2023-01-13T07:29:10.041Z,98943.00
2023-01-13T07:31:39.141Z,98946.44
2023-01-13T07:34:09.541Z,98953.31
2023-01-13T07:36:39.269Z,98947.25
2023-01-13T07:39:07.914Z,98950.72
2023-01-13T07:41:54.062Z,98948.13
2023-01-13T07:44:22.831Z,98951.53
2023-01-13T07:46:51.359Z,98954.09
2023-01-13T07:49:21.288Z,98955.00
2023-01-13T07:51:49.803Z,98950.59
2023-01-13T07:54:19.479Z,98960.09
2023-01-13T07:56:48.109Z,98962.69
2023-01-13T07:59:17.586Z,98966.97
2023-01-13T08:01:46.728Z,98974.63
2023-01-13T08:04:15.468Z,98959.94
2023-01-13T08:06:45.483Z,98958.25
2023-01-13T08:09:14.137Z,98971.16
2023-01-13T08:11:42.829Z,98974.63
2023-01-13T08:14:11.297Z,98972.06
2023-01-13T08:16:39.785Z,98974.63
2023-01-13T08:19:08.684Z,98976.41
2023-01-13T08:21:37.124Z,98987.56
2023-01-13T08:24:08.074Z,98983.28
2023-01-13T08:26:36.879Z,98987.53
2023-01-13T08:29:05.252Z,98975.50
2023-01-13T08:31:33.632Z,98994.41
2023-01-13T08:34:03.096Z,98990.94
2023-01-13T08:36:31.654Z,99006.41
2023-01-13T08:39:00.141Z,99009.88
2023-01-13T08:41:52.809Z,99012.47
2023-01-13T08:44:21.519Z,99011.50
2023-01-13T08:46:50.132Z,99008.94
2023-01-13T08:49:19.425Z,99010.69
2023-01-13T08:51:47.993Z,99012.47
2023-01-13T08:54:17.096Z,99013.38
2023-01-13T08:56:48.169Z,99013.44
2023-01-13T08:59:18.601Z,99019.47
2023-01-13T09:01:47.492Z,99026.41
2023-01-13T09:04:19.480Z,99027.28
2023-01-13T09:06:48.468Z,99025.59
2023-01-13T09:09:17.395Z,99023.00
2023-01-13T09:12:08.900Z,99014.38
2023-01-13T09:14:39.923Z,99018.59
2023-01-13T09:17:09.132Z,99025.47
2023-01-13T09:19:37.937Z,99028.06
2023-01-13T09:22:06.845Z,99036.69
2023-01-13T09:24:35.326Z,99023.00
2023-01-13T09:27:05.665Z,99017.78
2023-01-13T09:29:34.164Z,99028.19
2023-01-13T09:32:02.540Z,99021.31
2023-01-13T09:35:03.244Z,99019.56
2023-01-13T09:37:34.571Z,99030.75
2023-01-13T09:40:03.405Z,99023.03
2023-01-13T09:43:00.898Z,99022.16
2023-01-13T09:45:35.407Z,99044.56
2023-01-13T09:48:12.274Z,99030.78
2023-01-13T09:50:55.804Z,99036.84
2023-01-13T09:53:30.349Z,99022.16
2023-01-13T09:55:58.767Z,99038.59
2023-01-13T09:58:29.041Z,99032.72
2023-01-13T10:01:12.594Z,99030.94
2023-01-13T10:03:41.900Z,99038.75
2023-01-13T10:06:18.512Z,99037.91
2023-01-13T10:08:48.904Z,99044.81
2023-01-13T10:11:37.185Z,99047.41
2023-01-13T10:14:18.666Z,99043.94
2023-01-13T10:16:52.931Z,99038.84
2023-01-13T10:19:28.610Z,99043.13
2023-01-13T10:22:29.271Z,99044.84
2023-01-13T10:25:18.658Z,99036.22
2023-01-13T10:27:50.238Z,99048.31
2023-01-13T10:30:31.080Z,99044.97
2023-01-13T10:33:02.414Z,99052.72
2023-01-13T10:35:59.161Z,99044.84
2023-01-13T10:38:32.781Z,99054.25
2023-01-13T10:41:04.542Z,99056.00
2023-01-13T10:43:33.757Z,99061.16
2023-01-13T10:46:07.433Z,99056.88
2023-01-13T10:48:42.562Z,99050.94
2023-01-13T10:51:24.064Z,99042.38
2023-01-13T10:53:57.311Z,99039.81
2023-01-13T10:56:29.719Z,99045.88
2023-01-13T10:59:23.501Z,99038.19
2023-01-13T11:02:04.012Z,99048.59
2023-01-13T11:04:39.503Z,99039.13
2023-01-13T11:07:28.218Z,99040.94
2023-01-13T11:10:18.236Z,99029.84
2023-01-13T11:13:04.057Z,99031.69
2023-01-13T11:15:42.584Z,99036.94
2023-01-13T11:18:23.289Z,99048.19
2023-01-13T11:20:53.753Z,99041.31
2023-01-13T11:23:27.535Z,99051.69
2023-01-13T11:26:03.477Z,99054.34
2023-01-13T11:28:48.623Z,99055.28
2023-01-13T11:31:24.454Z,99053.53
2023-01-13T11:34:00.403Z,99073.38
2023-01-13T11:36:36.105Z,99062.97
2023-01-13T11:39:18.776Z,99070.59
2023-01-13T11:42:11.481Z,99082.41
2023-01-13T11:44:47.131Z,99084.63
2023-01-13T11:47:16.234Z,99086.88
2023-01-13T11:49:48.648Z,99106.41
2023-01-13T11:52:23.405Z,99093.31
2023-01-13T11:55:26.452Z,99086.28
2023-01-13T11:58:13.287Z,99080.19
2023-01-13T12:01:06.176Z,99083.66
2023-01-13T12:03:39.748Z,99076.78
2023-01-13T12:06:24.130Z,99072.53
2023-01-13T12:09:23.446Z,99080.25
2023-01-13T12:12:22.786Z,99093.16
2023-01-13T12:15:29.577Z,99088.81
2023-01-13T12:18:19.846Z,99082.69
2023-01-13T12:21:04.365Z,99098.19
2023-01-13T12:23:40.020Z,99095.59
2023-01-13T12:26:12.907Z,99093.91
2023-01-13T12:28:49.104Z,99090.44
2023-01-13T12:31:19.764Z,99091.31
2023-01-13T12:34:02.364Z,99112.00
2023-01-13T12:36:38.830Z,99133.44
2023-01-13T12:39:18.254Z,99137.69
2023-01-13T12:42:12.494Z,99127.31
2023-01-13T12:45:22.872Z,99130.63
2023-01-13T12:47:51.762Z,99120.28
2023-01-13T12:50:43.475Z,99120.22
2023-01-13T12:53:36.734Z,99131.28
2023-01-13T12:56:44.830Z,99132.06
2023-01-13T12:59:49.007Z,99125.97
2023-01-13T13:02:38.295Z,99137.09
2023-01-13T13:05:57.259Z,99144.81
2023-01-13T13:08:42.832Z,99145.63
2023-01-13T13:11:59.762Z,99143.03
2023-01-13T13:15:06.752Z,99140.38
2023-01-13T13:17:47.310Z,99137.81
2023-01-13T13:20:57.605Z,99150.72
2023-01-13T13:23:40.264Z,99148.13
2023-01-13T13:26:38.388Z,99146.38
2023-01-13T13:29:45.131Z,99159.16
2023-01-13T13:32:56.427Z,99152.09
2023-01-13T13:35:53.305Z,99165.84
2023-01-13T13:39:03.536Z,99166.66
2023-01-13T13:41:53.719Z,99174.34
2023-01-13T13:44:45.451Z,99173.44
2023-01-13T13:47:14.291Z,99167.41
2023-01-13T13:49:49.128Z,99189.00
2023-01-13T13:52:23.090Z,99183.94
2023-01-13T13:54:55.420Z,99190.88
2023-01-13T13:57:31.964Z,99189.25
2023-01-13T14:00:02.225Z,99184.09
2023-01-13T14:02:40.583Z,99208.22
2023-01-13T14:05:24.339Z,99223.78
2023-01-13T14:07:59.707Z,99222.16
2023-01-13T14:10:33.136Z,99235.06
2023-01-13T14:13:04.129Z,99238.47
2023-01-13T14:15:38.997Z,99245.41
2023-01-13T14:18:14.347Z,99245.41
2023-01-13T14:20:44.973Z,99249.75
2023-01-13T14:23:18.086Z,99257.53
2023-01-13T14:25:50.569Z,99265.28
2023-01-13T14:28:32.301Z,99263.53
2023-01-13T14:31:01.307Z,99271.06
2023-01-13T14:33:38.832Z,99280.47
2023-01-13T14:36:18.501Z,99291.59
2023-01-13T14:38:49.940Z,99288.94
2023-01-13T14:41:25.773Z,99307.09
2023-01-13T14:43:59.242Z,99303.69
2023-01-13T14:46:39.366Z,99303.72
2023-01-13T14:49:24.155Z,99307.19
2023-01-13T14:51:55.081Z,99308.16
2023-01-13T14:54:48.043Z,99323.72
2023-01-13T14:57:27.446Z,99328.00
2023-01-13T15:00:06.294Z,99327.09
2023-01-13T15:02:42.332Z,99332.28
2023-01-13T15:05:51.244Z,99325.25
2023-01-13T15:08:37.712Z,99333.00
2023-01-13T15:11:09.255Z,99340.81
2023-01-13T15:13:44.063Z,99341.72
2023-01-13T15:16:24.725Z,99365.81
2023-01-13T15:18:54.200Z,99362.34
2023-01-13T15:21:23.525Z,99369.16
2023-01-13T15:23:53.454Z,99354.44
2023-01-13T15:26:27.135Z,99368.16
2023-01-13T15:28:58.629Z,99378.41
2023-01-13T15:31:29.585Z,99384.38
2023-01-13T15:33:58.908Z,99384.38
2023-01-13T15:36:30.065Z,99401.50
2023-01-13T15:39:01.736Z,99403.13
2023-01-13T15:41:47.740Z,99409.94
2023-01-13T15:44:34.865Z,99403.00
2023-01-13T15:47:06.494Z,99416.72
2023-01-13T15:49:41.408Z,99428.81
2023-01-13T15:52:21.361Z,99435.59
2023-01-13T15:54:52.263Z,99428.66
2023-01-13T15:57:24.569Z,99432.94
2023-01-13T16:00:08.031Z,99441.66
2023-01-13T16:02:36.452Z,99433.97
2023-01-13T16:05:06.074Z,99428.94
2023-01-13T16:07:34.796Z,99422.97
2023-01-13T16:10:06.587Z,99429.91
2023-01-13T16:12:36.745Z,99428.19
2023-01-13T16:15:05.858Z,99435.88
2023-01-13T16:17:36.579Z,99436.75
2023-01-13T16:20:06.312Z,99438.38
2023-01-13T16:22:37.388Z,99435.78
2023-01-13T16:25:08.774Z,99446.19
2023-01-13T16:27:37.144Z,99447.06
2023-01-13T16:30:07.425Z,99455.72
2023-01-13T16:32:35.952Z,99453.13
2023-01-13T16:35:04.372Z,99451.28
2023-01-13T16:37:33.226Z,99468.47
2023-01-13T16:40:02.890Z,99462.38
2023-01-13T16:42:33.240Z,99477.84
2023-01-13T16:45:08.412Z,99482.06
2023-01-13T16:47:37.336Z,99485.44
2023-01-13T16:50:07.381Z,99487.22
2023-01-13T16:52:35.809Z,99487.09
2023-01-13T16:55:04.385Z,99499.09
2023-01-13T16:57:34.301Z,99502.56
2023-01-13T17:00:04.114Z,99516.28
2023-01-13T17:02:32.664Z,99503.31
2023-01-13T17:05:01.723Z,99511.94
2023-01-13T17:07:30.260Z,99520.56
2023-01-13T17:10:02.173Z,99521.44
2023-01-13T17:12:30.566Z,99524.84
2023-01-13T17:15:00.440Z,99523.22
2023-01-13T17:17:29.786Z,99534.44
2023-01-13T17:19:58.351Z,99535.28
2023-01-13T17:22:26.876Z,99541.31
2023-01-13T17:24:57.418Z,99540.44
2023-01-13T17:27:25.985Z,99549.06
2023-01-13T17:29:54.844Z,99541.41
2023-01-13T17:32:24.962Z,99537.22
2023-01-13T17:34:53.956Z,99547.53
2023-01-13T17:37:22.637Z,99544.94
2023-01-13T17:39:51.201Z,99553.56
2023-01-13T17:42:19.661Z,99562.84
2023-01-13T17:44:48.970Z,99555.06
2023-01-13T17:47:17.361Z,99560.16
2023-01-13T17:49:50.078Z,99544.59
2023-01-13T17:52:18.512Z,99555.63
2023-01-13T17:54:46.913Z,99567.69
2023-01-13T17:57:15.313Z,99559.94
2023-01-13T17:59:43.911Z,99568.63
2023-01-13T18:02:13.820Z,99561.84
2023-01-13T18:04:43.417Z,99567.00
2023-01-13T18:07:13.304Z,99574.81
2023-01-13T18:09:41.734Z,99577.31
2023-01-13T18:12:10.700Z,99581.69
2023-01-13T18:14:39.175Z,99583.50
2023-01-13T18:17:07.752Z,99598.97
2023-01-13T18:19:54.161Z,99586.88
2023-01-13T18:22:41.599Z,99595.47
2023-01-13T18:25:30.924Z,99596.34
2023-01-13T18:28:00.216Z,99607.41
2023-01-13T18:30:28.584Z,99613.38
2023-01-13T18:32:57.288Z,99621.13
2023-01-13T18:35:26.025Z,99621.13
2023-01-13T18:37:55.932Z,99618.53
2023-01-13T18:40:24.362Z,99627.09
2023-01-13T18:42:51.981Z,99627.03
2023-01-13T18:45:23.167Z,99625.31
2023-01-13T18:47:52.046Z,99631.31
2023-01-13T18:50:21.272Z,99635.63
2023-01-13T18:52:49.848Z,99633.94
2023-01-13T18:55:19.851Z,99642.56
2023-01-13T18:57:48.823Z,99638.22
2023-01-13T19:00:20.535Z,99634.00
2023-01-13T19:02:50.687Z,99644.41
2023-01-13T19:05:19.752Z,99636.69
2023-01-13T19:07:50.983Z,99640.16
2023-01-13T19:10:21.396Z,99640.16
2023-01-13T19:12:49.730Z,99652.25
2023-01-13T19:15:18.332Z,99659.09
2023-01-13T19:17:46.740Z,99656.56
2023-01-13T19:20:15.190Z,99658.22
2023-01-13T19:22:44.379Z,99660.00
2023-01-13T19:25:12.731Z,99661.72
2023-01-13T19:27:42.803Z,99664.31
2023-01-13T19:30:13.541Z,99664.31
2023-01-13T19:32:41.974Z,99679.00
2023-01-13T19:35:13.110Z,99688.50
2023-01-13T19:37:43.597Z,99683.44
2023-01-13T19:40:14.351Z,99689.47
2023-01-13T19:43:03.329Z,99677.47
2023-01-13T19:45:35.324Z,99680.75
2023-01-13T19:48:05.471Z,99691.97
2023-01-13T19:50:38.587Z,99682.63
2023-01-13T19:53:07.841Z,99694.63
2023-01-13T19:55:36.449Z,99692.94
2023-01-13T19:58:08.156Z,99695.56
2023-01-13T20:00:36.660Z,99710.16
2023-01-13T20:03:08.184Z,99718.81
2023-01-13T20:05:36.784Z,99721.38
2023-01-13T20:08:05.609Z,99712.84
2023-01-13T20:10:34.364Z,99729.13
2023-01-13T20:13:02.837Z,99724.84
2023-01-13T20:15:32.945Z,99726.72
2023-01-13T20:18:01.625Z,99726.72
2023-01-13T20:20:30.181Z,99740.56
2023-01-13T20:22:59.550Z,99750.03
2023-01-13T20:25:28.979Z,99745.72
2023-01-13T20:27:58.715Z,99747.44
2023-01-13T20:30:27.185Z,99753.41
2023-01-13T20:32:57.135Z,99759.50
2023-01-13T20:35:29.624Z,99762.84
2023-01-13T20:37:58.420Z,99760.34
2023-01-13T20:40:27.016Z,99764.63
2023-01-13T20:42:54.768Z,99758.56
2023-01-13T20:45:23.411Z,99768.94
2023-01-13T20:47:52.168Z,99766.31
2023-01-13T20:50:22.496Z,99783.63
2023-01-13T20:52:52.606Z,99765.50
2023-01-13T20:55:21.065Z,99780.09
2023-01-13T20:57:50.461Z,99776.56
2023-01-13T21:00:20.871Z,99782.59
2023-01-13T21:02:49.446Z,99791.06
2023-01-13T21:05:18.491Z,99779.94
2023-01-13T21:07:48.399Z,99783.31
2023-01-13T21:10:17.221Z,99790.13
2023-01-13T21:13:03.192Z,99800.47
2023-01-13T21:15:31.587Z,99791.72
2023-01-13T21:18:17.501Z,99796.91
2023-01-13T21:20:46.054Z,99801.94
2023-01-13T21:23:15.896Z,99807.09
2023-01-13T21:25:44.911Z,99806.19
2023-01-13T21:28:13.974Z,99804.50
2023-01-13T21:30:43.662Z,99806.19
2023-01-13T21:33:14.823Z,99813.13
2023-01-13T21:35:43.284Z,99813.19
2023-01-13T21:38:13.651Z,99812.38
2023-01-13T21:40:43.604Z,99814.00
2023-01-13T21:43:31.535Z,99819.09
2023-01-13T21:46:17.627Z,99822.41
2023-01-13T21:48:46.095Z,99827.56
2023-01-13T21:51:14.562Z,99829.34
2023-01-13T21:53:43.437Z,99837.16
2023-01-13T21:56:13.338Z,99835.47
2023-01-13T21:58:41.966Z,99833.78
2023-01-13T22:01:11.970Z,99840.63
2023-01-13T22:03:58.872Z,99849.19
2023-01-13T22:06:28.275Z,99832.91
2023-01-13T22:08:59.932Z,99841.44
2023-01-13T22:11:30.100Z,99859.59
2023-01-13T22:14:09.257Z,99860.44
2023-01-13T22:16:41.525Z,99856.16
2023-01-13T22:19:11.795Z,99846.75
2023-01-13T22:21:40.519Z,99847.63
2023-01-13T22:24:09.606Z,99853.69
2023-01-13T22:26:39.489Z,99857.25
2023-01-13T22:29:07.964Z,99860.63
2023-01-13T22:31:36.484Z,99861.50
2023-01-13T22:34:05.088Z,99862.41
2023-01-13T22:36:33.941Z,99872.72
2023-01-13T22:39:02.732Z,99875.22
2023-01-13T22:41:31.171Z,99878.69
2023-01-13T22:44:01.181Z,99882.16
2023-01-13T22:46:29.636Z,99874.31
2023-01-13T22:48:58.682Z,99874.31
2023-01-13T22:51:27.314Z,99868.19
2023-01-13T22:53:55.994Z,99869.03
2023-01-13T22:56:27.001Z,99873.28
2023-01-13T22:58:56.180Z,99884.50
2023-01-13T23:01:28.712Z,99893.94
2023-01-13T23:03:57.914Z,99905.16
2023-01-13T23:06:28.886Z,99916.38
2023-01-13T23:08:57.679Z,99912.06
2023-01-13T23:11:29.155Z,99912.16
2023-01-13T23:14:03.335Z,99908.63
2023-01-13T23:16:36.655Z,99912.00
2023-01-13T23:19:06.496Z,99918.78
2023-01-13T23:21:38.244Z,99913.63
2023-01-13T23:24:08.501Z,99911.03
2023-01-13T23:26:38.162Z,99909.44
2023-01-13T23:29:09.812Z,99920.63
2023-01-13T23:31:41.051Z,99918.94
2023-01-13T23:34:09.920Z,99929.28
2023-01-13T23:36:41.112Z,99920.63
2023-01-13T23:39:09.485Z,99921.53
2023-01-13T23:41:38.259Z,99943.03
2023-01-13T23:44:06.963Z,99931.84
2023-01-13T23:46:35.895Z,99936.13
2023-01-13T23:49:06.160Z,99922.25
2023-01-13T23:51:34.651Z,99940.31
2023-01-13T23:54:03.218Z,99922.34
2023-01-13T23:56:32.954Z,99923.13
2023-01-13T23:59:01.668Z,99937.72
